sim
Sign-in with your pilot id or email,
or register
Callsign
Passwort

Schedule Details

Flight Number: DLH1815
Departure: Barcelona El Prat Airport (LEBL) at 17:35
Arrival: Munich Airport (EDDM) at 19:35
Route: Lufthansa Passenger Schedule. Enter filed route here before submitting Pirep.

Weather Information
Getting current METAR information for LEBL 181300Z 35011KT 8000 FEW015 21/19 Q1017 NOSIG
Getting current METAR information for EDDM 181250Z 07010KT 020V120 CAVOK 19/09 Q1024 NOSIG

Schedule Frequency

Route Map